sensor_id;sensor_type;location;lat;lon;timestamp;P1;durP1;ratioP1;P2;durP2;ratioP2
3343;SDS011;1685;53.104;8.228;2023-12-20T00:01:13;10.77;;;2.60;;
3343;SDS011;1685;53.104;8.228;2023-12-20T00:03:41;14.30;;;2.70;;
3343;SDS011;1685;53.104;8.228;2023-12-20T00:06:08;14.30;;;3.37;;
3343;SDS011;1685;53.104;8.228;2023-12-20T00:08:35;7.77;;;3.10;;
3343;SDS011;1685;53.104;8.228;2023-12-20T00:11:04;5.37;;;2.60;;
3343;SDS011;1685;53.104;8.228;2023-12-20T00:13:31;8.03;;;2.27;;
3343;SDS011;1685;53.104;8.228;2023-12-20T00:15:58;18.67;;;3.20;;
3343;SDS011;1685;53.104;8.228;2023-12-20T00:18:25;7.77;;;2.10;;
3343;SDS011;1685;53.104;8.228;2023-12-20T00:20:52;11.27;;;2.80;;
3343;SDS011;1685;53.104;8.228;2023-12-20T00:23:19;13.40;;;2.93;;
3343;SDS011;1685;53.104;8.228;2023-12-20T00:25:48;6.20;;;2.47;;
3343;SDS011;1685;53.104;8.228;2023-12-20T00:28:16;5.47;;;2.50;;
3343;SDS011;1685;53.104;8.228;2023-12-20T00:30:43;8.83;;;2.70;;
3343;SDS011;1685;53.104;8.228;2023-12-20T00:33:10;4.20;;;2.50;;
3343;SDS011;1685;53.104;8.228;2023-12-20T00:35:37;13.33;;;2.50;;
3343;SDS011;1685;53.104;8.228;2023-12-20T00:38:04;7.40;;;2.50;;
3343;SDS011;1685;53.104;8.228;2023-12-20T00:40:34;10.37;;;2.10;;
3343;SDS011;1685;53.104;8.228;2023-12-20T00:43:06;17.13;;;2.20;;
3343;SDS011;1685;53.104;8.228;2023-12-20T00:45:42;23.40;;;2.43;;
3343;SDS011;1685;53.104;8.228;2023-12-20T00:48:14;7.97;;;2.43;;
3343;SDS011;1685;53.104;8.228;2023-12-20T00:50:49;6.83;;;2.67;;
3343;SDS011;1685;53.104;8.228;2023-12-20T00:53:18;13.73;;;2.97;;
3343;SDS011;1685;53.104;8.228;2023-12-20T00:55:48;11.33;;;3.00;;
3343;SDS011;1685;53.104;8.228;2023-12-20T00:58:17;21.63;;;3.57;;
3343;SDS011;1685;53.104;8.228;2023-12-20T01:00:50;8.90;;;2.83;;
3343;SDS011;1685;53.104;8.228;2023-12-20T01:03:17;10.50;;;4.30;;
3343;SDS011;1685;53.104;8.228;2023-12-20T01:05:44;9.40;;;2.60;;
3343;SDS011;1685;53.104;8.228;2023-12-20T01:08:11;12.90;;;3.20;;
3343;SDS011;1685;53.104;8.228;2023-12-20T01:10:38;18.50;;;2.90;;
3343;SDS011;1685;53.104;8.228;2023-12-20T01:13:05;14.23;;;2.53;;
3343;SDS011;1685;53.104;8.228;2023-12-20T01:15:34;14.20;;;2.57;;
3343;SDS011;1685;53.104;8.228;2023-12-20T01:18:02;16.83;;;2.57;;
3343;SDS011;1685;53.104;8.228;2023-12-20T01:20:29;10.27;;;3.00;;
3343;SDS011;1685;53.104;8.228;2023-12-20T01:22:57;12.63;;;3.10;;
3343;SDS011;1685;53.104;8.228;2023-12-20T01:25:24;8.33;;;2.67;;
3343;SDS011;1685;53.104;8.228;2023-12-20T01:27:51;12.40;;;2.53;;
3343;SDS011;1685;53.104;8.228;2023-12-20T01:30:18;6.67;;;2.13;;
3343;SDS011;1685;53.104;8.228;2023-12-20T01:32:45;7.43;;;1.90;;
3343;SDS011;1685;53.104;8.228;2023-12-20T01:35:14;14.73;;;2.63;;
3343;SDS011;1685;53.104;8.228;2023-12-20T01:37:40;13.07;;;2.30;;
3343;SDS011;1685;53.104;8.228;2023-12-20T01:40:08;5.40;;;2.40;;
3343;SDS011;1685;53.104;8.228;2023-12-20T01:42:35;14.93;;;2.50;;
3343;SDS011;1685;53.104;8.228;2023-12-20T01:45:03;9.47;;;2.97;;
3343;SDS011;1685;53.104;8.228;2023-12-20T01:47:30;11.00;;;3.93;;
3343;SDS011;1685;53.104;8.228;2023-12-20T01:49:57;27.57;;;3.70;;
3343;SDS011;1685;53.104;8.228;2023-12-20T01:52:26;9.10;;;3.73;;
3343;SDS011;1685;53.104;8.228;2023-12-20T01:54:53;10.43;;;3.13;;
3343;SDS011;1685;53.104;8.228;2023-12-20T01:57:26;11.43;;;2.93;;
3343;SDS011;1685;53.104;8.228;2023-12-20T01:59:53;12.63;;;2.73;;
3343;SDS011;1685;53.104;8.228;2023-12-20T02:02:20;9.83;;;2.87;;
3343;SDS011;1685;53.104;8.228;2023-12-20T02:04:48;12.00;;;2.30;;
3343;SDS011;1685;53.104;8.228;2023-12-20T02:07:16;21.83;;;4.47;;
3343;SDS011;1685;53.104;8.228;2023-12-20T02:09:45;7.13;;;3.00;;
3343;SDS011;1685;53.104;8.228;2023-12-20T02:12:12;14.23;;;2.33;;
3343;SDS011;1685;53.104;8.228;2023-12-20T02:14:40;18.53;;;2.80;;
3343;SDS011;1685;53.104;8.228;2023-12-20T02:17:07;13.90;;;2.70;;
3343;SDS011;1685;53.104;8.228;2023-12-20T02:19:34;12.37;;;2.30;;
3343;SDS011;1685;53.104;8.228;2023-12-20T02:22:06;19.97;;;2.50;;
3343;SDS011;1685;53.104;8.228;2023-12-20T02:24:36;10.03;;;2.40;;
3343;SDS011;1685;53.104;8.228;2023-12-20T02:27:03;6.27;;;2.53;;
3343;SDS011;1685;53.104;8.228;2023-12-20T02:29:32;7.43;;;2.13;;
3343;SDS011;1685;53.104;8.228;2023-12-20T02:32:00;6.97;;;2.20;;
3343;SDS011;1685;53.104;8.228;2023-12-20T02:34:27;10.10;;;2.33;;
3343;SDS011;1685;53.104;8.228;2023-12-20T02:36:55;9.70;;;2.57;;
3343;SDS011;1685;53.104;8.228;2023-12-20T02:39:23;10.60;;;2.50;;
3343;SDS011;1685;53.104;8.228;2023-12-20T02:41:50;9.70;;;2.60;;
3343;SDS011;1685;53.104;8.228;2023-12-20T02:44:17;10.50;;;2.30;;
3343;SDS011;1685;53.104;8.228;2023-12-20T02:46:44;9.50;;;2.30;;
3343;SDS011;1685;53.104;8.228;2023-12-20T02:49:12;8.13;;;2.20;;
3343;SDS011;1685;53.104;8.228;2023-12-20T02:51:39;13.10;;;3.23;;
3343;SDS011;1685;53.104;8.228;2023-12-20T02:54:06;16.13;;;3.00;;
3343;SDS011;1685;53.104;8.228;2023-12-20T02:56:34;10.43;;;2.47;;
3343;SDS011;1685;53.104;8.228;2023-12-20T02:59:01;16.73;;;2.33;;
3343;SDS011;1685;53.104;8.228;2023-12-20T03:01:30;7.90;;;3.07;;
3343;SDS011;1685;53.104;8.228;2023-12-20T03:03:57;13.97;;;3.47;;
3343;SDS011;1685;53.104;8.228;2023-12-20T03:06:25;5.77;;;2.03;;
3343;SDS011;1685;53.104;8.228;2023-12-20T03:08:52;10.10;;;2.43;;
3343;SDS011;1685;53.104;8.228;2023-12-20T03:11:19;14.23;;;2.60;;
3343;SDS011;1685;53.104;8.228;2023-12-20T03:13:47;22.93;;;3.80;;
3343;SDS011;1685;53.104;8.228;2023-12-20T03:16:14;13.93;;;3.10;;
3343;SDS011;1685;53.104;8.228;2023-12-20T03:18:41;9.97;;;3.27;;
3343;SDS011;1685;53.104;8.228;2023-12-20T03:21:09;17.47;;;2.93;;
3343;SDS011;1685;53.104;8.228;2023-12-20T03:23:36;17.60;;;3.77;;
3343;SDS011;1685;53.104;8.228;2023-12-20T03:26:03;17.23;;;3.33;;
3343;SDS011;1685;53.104;8.228;2023-12-20T03:28:30;9.83;;;3.00;;
3343;SDS011;1685;53.104;8.228;2023-12-20T03:30:59;7.93;;;2.77;;
3343;SDS011;1685;53.104;8.228;2023-12-20T03:33:27;10.80;;;3.03;;
3343;SDS011;1685;53.104;8.228;2023-12-20T03:35:54;18.30;;;3.30;;
3343;SDS011;1685;53.104;8.228;2023-12-20T03:38:21;20.13;;;3.67;;
3343;SDS011;1685;53.104;8.228;2023-12-20T03:40:49;12.50;;;2.27;;
3343;SDS011;1685;53.104;8.228;2023-12-20T03:43:16;11.20;;;3.33;;
3343;SDS011;1685;53.104;8.228;2023-12-20T03:45:43;14.30;;;3.23;;
3343;SDS011;1685;53.104;8.228;2023-12-20T03:48:12;20.03;;;3.07;;
3343;SDS011;1685;53.104;8.228;2023-12-20T03:50:39;6.23;;;2.50;;
3343;SDS011;1685;53.104;8.228;2023-12-20T03:53:06;9.43;;;3.30;;
3343;SDS011;1685;53.104;8.228;2023-12-20T03:55:33;13.73;;;3.37;;
3343;SDS011;1685;53.104;8.228;2023-12-20T03:58:00;12.50;;;3.07;;
3343;SDS011;1685;53.104;8.228;2023-12-20T04:00:28;5.53;;;2.43;;
3343;SDS011;1685;53.104;8.228;2023-12-20T04:02:55;18.87;;;3.13;;
3343;SDS011;1685;53.104;8.228;2023-12-20T04:05:23;11.13;;;2.37;;
3343;SDS011;1685;53.104;8.228;2023-12-20T04:07:50;17.47;;;2.93;;
3343;SDS011;1685;53.104;8.228;2023-12-20T04:10:17;9.23;;;2.77;;
3343;SDS011;1685;53.104;8.228;2023-12-20T04:12:44;10.33;;;2.77;;
3343;SDS011;1685;53.104;8.228;2023-12-20T04:15:11;16.40;;;4.30;;
3343;SDS011;1685;53.104;8.228;2023-12-20T04:17:38;12.03;;;3.23;;
3343;SDS011;1685;53.104;8.228;2023-12-20T04:20:06;15.10;;;3.47;;
3343;SDS011;1685;53.104;8.228;2023-12-20T04:22:35;21.43;;;3.83;;
3343;SDS011;1685;53.104;8.228;2023-12-20T04:25:02;7.10;;;2.90;;
3343;SDS011;1685;53.104;8.228;2023-12-20T04:27:29;17.47;;;4.10;;
3343;SDS011;1685;53.104;8.228;2023-12-20T04:29:56;8.93;;;2.80;;
3343;SDS011;1685;53.104;8.228;2023-12-20T04:32:23;10.10;;;3.33;;
3343;SDS011;1685;53.104;8.228;2023-12-20T04:34:51;14.00;;;3.23;;
3343;SDS011;1685;53.104;8.228;2023-12-20T04:37:18;16.50;;;3.53;;
3343;SDS011;1685;53.104;8.228;2023-12-20T04:39:46;8.77;;;2.63;;
3343;SDS011;1685;53.104;8.228;2023-12-20T04:42:13;20.60;;;3.50;;
3343;SDS011;1685;53.104;8.228;2023-12-20T04:44:40;14.07;;;3.30;;
3343;SDS011;1685;53.104;8.228;2023-12-20T04:47:08;11.40;;;3.60;;
3343;SDS011;1685;53.104;8.228;2023-12-20T04:49:36;28.03;;;4.33;;
3343;SDS011;1685;53.104;8.228;2023-12-20T04:52:03;23.80;;;3.83;;
3343;SDS011;1685;53.104;8.228;2023-12-20T04:54:31;17.30;;;3.90;;
3343;SDS011;1685;53.104;8.228;2023-12-20T04:56:59;24.33;;;3.60;;
3343;SDS011;1685;53.104;8.228;2023-12-20T04:59:26;21.20;;;4.07;;
3343;SDS011;1685;53.104;8.228;2023-12-20T05:01:53;14.50;;;3.27;;
3343;SDS011;1685;53.104;8.228;2023-12-20T05:04:20;11.10;;;4.10;;
3343;SDS011;1685;53.104;8.228;2023-12-20T05:06:47;11.60;;;3.33;;
3343;SDS011;1685;53.104;8.228;2023-12-20T05:09:16;15.63;;;3.10;;
3343;SDS011;1685;53.104;8.228;2023-12-20T05:11:43;20.40;;;3.80;;
3343;SDS011;1685;53.104;8.228;2023-12-20T05:14:11;13.77;;;3.40;;
3343;SDS011;1685;53.104;8.228;2023-12-20T05:16:38;18.50;;;3.60;;
3343;SDS011;1685;53.104;8.228;2023-12-20T05:19:05;10.60;;;3.23;;
3343;SDS011;1685;53.104;8.228;2023-12-20T05:21:32;10.57;;;3.67;;
3343;SDS011;1685;53.104;8.228;2023-12-20T05:23:59;17.23;;;3.90;;
3343;SDS011;1685;53.104;8.228;2023-12-20T05:26:26;18.43;;;3.50;;
3343;SDS011;1685;53.104;8.228;2023-12-20T05:28:54;10.63;;;3.70;;
3343;SDS011;1685;53.104;8.228;2023-12-20T05:31:23;15.50;;;3.90;;
3343;SDS011;1685;53.104;8.228;2023-12-20T05:33:50;17.73;;;3.97;;
3343;SDS011;1685;53.104;8.228;2023-12-20T05:36:17;20.00;;;3.90;;
3343;SDS011;1685;53.104;8.228;2023-12-20T05:38:44;23.57;;;3.70;;
3343;SDS011;1685;53.104;8.228;2023-12-20T05:41:12;16.77;;;4.50;;
3343;SDS011;1685;53.104;8.228;2023-12-20T05:43:39;34.07;;;4.80;;
3343;SDS011;1685;53.104;8.228;2023-12-20T05:46:06;26.43;;;5.10;;
3343;SDS011;1685;53.104;8.228;2023-12-20T05:48:35;26.47;;;4.53;;
3343;SDS011;1685;53.104;8.228;2023-12-20T05:51:02;30.90;;;4.57;;
3343;SDS011;1685;53.104;8.228;2023-12-20T05:53:29;30.37;;;4.37;;
3343;SDS011;1685;53.104;8.228;2023-12-20T05:55:56;21.50;;;3.90;;
3343;SDS011;1685;53.104;8.228;2023-12-20T05:58:23;25.83;;;4.40;;
3343;SDS011;1685;53.104;8.228;2023-12-20T06:00:51;14.77;;;4.00;;
3343;SDS011;1685;53.104;8.228;2023-12-20T06:03:18;19.47;;;3.50;;
3343;SDS011;1685;53.104;8.228;2023-12-20T06:05:46;17.50;;;3.80;;
3343;SDS011;1685;53.104;8.228;2023-12-20T06:08:13;22.40;;;4.70;;
3343;SDS011;1685;53.104;8.228;2023-12-20T06:10:40;23.63;;;3.83;;
3343;SDS011;1685;53.104;8.228;2023-12-20T06:13:07;36.70;;;5.53;;
3343;SDS011;1685;53.104;8.228;2023-12-20T06:15:34;20.70;;;4.57;;
3343;SDS011;1685;53.104;8.228;2023-12-20T06:18:02;26.37;;;4.43;;
3343;SDS011;1685;53.104;8.228;2023-12-20T06:20:29;19.83;;;4.40;;
3343;SDS011;1685;53.104;8.228;2023-12-20T06:22:57;16.87;;;3.87;;
3343;SDS011;1685;53.104;8.228;2023-12-20T06:25:25;20.60;;;3.97;;
3343;SDS011;1685;53.104;8.228;2023-12-20T06:27:52;13.40;;;3.90;;
3343;SDS011;1685;53.104;8.228;2023-12-20T06:30:19;36.87;;;4.90;;
3343;SDS011;1685;53.104;8.228;2023-12-20T06:32:46;24.43;;;4.50;;
3343;SDS011;1685;53.104;8.228;2023-12-20T06:35:13;22.73;;;4.13;;
3343;SDS011;1685;53.104;8.228;2023-12-20T06:37:40;30.67;;;4.47;;
3343;SDS011;1685;53.104;8.228;2023-12-20T06:40:10;21.40;;;3.67;;
3343;SDS011;1685;53.104;8.228;2023-12-20T06:42:37;19.90;;;3.67;;
3343;SDS011;1685;53.104;8.228;2023-12-20T06:45:05;25.37;;;4.60;;
3343;SDS011;1685;53.104;8.228;2023-12-20T06:47:32;31.00;;;4.27;;
3343;SDS011;1685;53.104;8.228;2023-12-20T06:49:59;17.87;;;4.70;;
3343;SDS011;1685;53.104;8.228;2023-12-20T06:52:26;24.00;;;5.17;;
3343;SDS011;1685;53.104;8.228;2023-12-20T06:54:53;24.43;;;3.87;;
3343;SDS011;1685;53.104;8.228;2023-12-20T06:57:22;22.83;;;5.13;;
3343;SDS011;1685;53.104;8.228;2023-12-20T06:59:51;22.23;;;4.57;;
3343;SDS011;1685;53.104;8.228;2023-12-20T07:02:18;29.40;;;4.30;;
3343;SDS011;1685;53.104;8.228;2023-12-20T07:04:46;31.67;;;4.13;;
3343;SDS011;1685;53.104;8.228;2023-12-20T07:07:13;27.57;;;5.43;;
3343;SDS011;1685;53.104;8.228;2023-12-20T07:09:40;17.37;;;4.70;;
3343;SDS011;1685;53.104;8.228;2023-12-20T07:12:08;16.93;;;4.73;;
3343;SDS011;1685;53.104;8.228;2023-12-20T07:14:36;22.43;;;5.00;;
3343;SDS011;1685;53.104;8.228;2023-12-20T07:17:03;15.17;;;4.07;;
3343;SDS011;1685;53.104;8.228;2023-12-20T07:19:32;24.03;;;4.17;;
3343;SDS011;1685;53.104;8.228;2023-12-20T07:21:59;18.73;;;4.03;;
3343;SDS011;1685;53.104;8.228;2023-12-20T07:24:27;24.80;;;5.70;;
3343;SDS011;1685;53.104;8.228;2023-12-20T07:26:54;23.43;;;4.10;;
3343;SDS011;1685;53.104;8.228;2023-12-20T07:29:21;19.80;;;5.50;;
3343;SDS011;1685;53.104;8.228;2023-12-20T07:31:49;20.37;;;4.63;;
3343;SDS011;1685;53.104;8.228;2023-12-20T07:34:17;21.97;;;4.30;;
3343;SDS011;1685;53.104;8.228;2023-12-20T07:36:44;28.67;;;4.30;;
3343;SDS011;1685;53.104;8.228;2023-12-20T07:39:12;26.50;;;4.70;;
3343;SDS011;1685;53.104;8.228;2023-12-20T07:41:39;19.47;;;4.73;;
3343;SDS011;1685;53.104;8.228;2023-12-20T07:44:06;28.37;;;5.10;;
3343;SDS011;1685;53.104;8.228;2023-12-20T07:46:33;19.27;;;5.13;;
3343;SDS011;1685;53.104;8.228;2023-12-20T07:49:02;30.43;;;4.93;;
3343;SDS011;1685;53.104;8.228;2023-12-20T07:51:30;29.73;;;5.20;;
3343;SDS011;1685;53.104;8.228;2023-12-20T07:53:57;21.30;;;4.10;;
3343;SDS011;1685;53.104;8.228;2023-12-20T07:56:24;23.30;;;4.93;;
3343;SDS011;1685;53.104;8.228;2023-12-20T07:58:51;22.40;;;5.20;;
3343;SDS011;1685;53.104;8.228;2023-12-20T08:01:19;18.17;;;4.10;;
3343;SDS011;1685;53.104;8.228;2023-12-20T08:03:46;23.23;;;4.47;;
3343;SDS011;1685;53.104;8.228;2023-12-20T08:06:14;24.43;;;4.10;;
3343;SDS011;1685;53.104;8.228;2023-12-20T08:08:42;32.00;;;4.37;;
3343;SDS011;1685;53.104;8.228;2023-12-20T08:11:09;22.17;;;4.47;;
3343;SDS011;1685;53.104;8.228;2023-12-20T08:13:36;25.27;;;4.80;;
3343;SDS011;1685;53.104;8.228;2023-12-20T08:16:02;21.80;;;5.30;;
3343;SDS011;1685;53.104;8.228;2023-12-20T08:18:30;20.30;;;4.97;;
3343;SDS011;1685;53.104;8.228;2023-12-20T08:20:56;20.67;;;4.00;;
3343;SDS011;1685;53.104;8.228;2023-12-20T08:23:25;17.10;;;4.30;;
3343;SDS011;1685;53.104;8.228;2023-12-20T08:25:52;16.43;;;4.10;;
3343;SDS011;1685;53.104;8.228;2023-12-20T08:28:19;18.80;;;4.13;;
3343;SDS011;1685;53.104;8.228;2023-12-20T08:30:46;17.93;;;4.30;;
3343;SDS011;1685;53.104;8.228;2023-12-20T08:33:13;25.90;;;5.37;;
3343;SDS011;1685;53.104;8.228;2023-12-20T08:35:40;19.33;;;3.70;;
3343;SDS011;1685;53.104;8.228;2023-12-20T08:38:07;24.53;;;6.83;;
3343;SDS011;1685;53.104;8.228;2023-12-20T08:40:37;13.20;;;4.20;;
3343;SDS011;1685;53.104;8.228;2023-12-20T08:43:04;26.53;;;5.10;;
3343;SDS011;1685;53.104;8.228;2023-12-20T08:45:31;33.93;;;5.53;;
3343;SDS011;1685;53.104;8.228;2023-12-20T08:47:58;28.47;;;3.93;;
3343;SDS011;1685;53.104;8.228;2023-12-20T08:50:26;22.33;;;4.90;;
3343;SDS011;1685;53.104;8.228;2023-12-20T08:52:53;26.10;;;4.73;;
3343;SDS011;1685;53.104;8.228;2023-12-20T08:55:20;17.63;;;4.60;;
3343;SDS011;1685;53.104;8.228;2023-12-20T08:57:48;19.57;;;4.60;;
3343;SDS011;1685;53.104;8.228;2023-12-20T09:00:16;20.90;;;4.90;;
3343;SDS011;1685;53.104;8.228;2023-12-20T09:02:45;28.33;;;6.40;;
3343;SDS011;1685;53.104;8.228;2023-12-20T09:05:12;53.93;;;5.90;;
3343;SDS011;1685;53.104;8.228;2023-12-20T09:07:38;31.07;;;5.33;;
3343;SDS011;1685;53.104;8.228;2023-12-20T09:10:06;25.60;;;4.97;;
3343;SDS011;1685;53.104;8.228;2023-12-20T09:12:33;25.67;;;4.33;;
3343;SDS011;1685;53.104;8.228;2023-12-20T09:15:02;15.57;;;4.13;;
3343;SDS011;1685;53.104;8.228;2023-12-20T09:17:29;29.10;;;5.83;;
3343;SDS011;1685;53.104;8.228;2023-12-20T09:19:56;14.20;;;4.70;;
3343;SDS011;1685;53.104;8.228;2023-12-20T09:22:25;21.77;;;4.80;;
3343;SDS011;1685;53.104;8.228;2023-12-20T09:24:52;16.43;;;4.10;;
3343;SDS011;1685;53.104;8.228;2023-12-20T09:27:20;38.03;;;5.80;;
3343;SDS011;1685;53.104;8.228;2023-12-20T09:29:47;6.67;;;1.97;;
3343;SDS011;1685;53.104;8.228;2023-12-20T09:32:16;5.03;;;1.37;;
3343;SDS011;1685;53.104;8.228;2023-12-20T09:34:42;1.33;;;1.23;;
3343;SDS011;1685;53.104;8.228;2023-12-20T09:37:10;5.73;;;1.20;;
3343;SDS011;1685;53.104;8.228;2023-12-20T09:39:37;1.30;;;1.20;;
3343;SDS011;1685;53.104;8.228;2023-12-20T09:42:04;2.93;;;1.27;;
3343;SDS011;1685;53.104;8.228;2023-12-20T09:44:33;9.27;;;1.50;;
3343;SDS011;1685;53.104;8.228;2023-12-20T09:47:01;1.17;;;1.00;;
3343;SDS011;1685;53.104;8.228;2023-12-20T09:49:30;1.67;;;1.37;;
3343;SDS011;1685;53.104;8.228;2023-12-20T09:51:59;3.53;;;1.47;;
3343;SDS011;1685;53.104;8.228;2023-12-20T09:54:27;5.07;;;1.70;;
3343;SDS011;1685;53.104;8.228;2023-12-20T09:56:55;16.63;;;1.30;;
3343;SDS011;1685;53.104;8.228;2023-12-20T09:59:23;3.23;;;1.53;;
3343;SDS011;1685;53.104;8.228;2023-12-20T10:01:50;5.30;;;1.43;;
3343;SDS011;1685;53.104;8.228;2023-12-20T10:04:20;4.93;;;1.57;;
3343;SDS011;1685;53.104;8.228;2023-12-20T10:06:49;5.77;;;1.70;;
3343;SDS011;1685;53.104;8.228;2023-12-20T10:09:17;4.60;;;1.30;;
3343;SDS011;1685;53.104;8.228;2023-12-20T10:11:44;4.27;;;1.40;;
3343;SDS011;1685;53.104;8.228;2023-12-20T10:14:11;5.87;;;2.20;;
3343;SDS011;1685;53.104;8.228;2023-12-20T10:16:39;3.93;;;1.47;;
3343;SDS011;1685;53.104;8.228;2023-12-20T10:19:07;7.83;;;1.80;;
3343;SDS011;1685;53.104;8.228;2023-12-20T10:21:34;7.93;;;1.50;;
3343;SDS011;1685;53.104;8.228;2023-12-20T10:24:03;4.10;;;1.27;;
3343;SDS011;1685;53.104;8.228;2023-12-20T10:26:30;12.53;;;1.87;;
3343;SDS011;1685;53.104;8.228;2023-12-20T10:28:59;5.60;;;1.90;;
3343;SDS011;1685;53.104;8.228;2023-12-20T10:31:28;3.40;;;1.90;;
3343;SDS011;1685;53.104;8.228;2023-12-20T10:33:56;4.27;;;1.80;;
3343;SDS011;1685;53.104;8.228;2023-12-20T10:36:25;6.23;;;1.60;;
3343;SDS011;1685;53.104;8.228;2023-12-20T10:38:53;4.10;;;2.17;;
3343;SDS011;1685;53.104;8.228;2023-12-20T10:41:23;7.17;;;1.87;;
3343;SDS011;1685;53.104;8.228;2023-12-20T10:43:55;11.10;;;1.90;;
3343;SDS011;1685;53.104;8.228;2023-12-20T10:46:24;8.30;;;1.43;;
3343;SDS011;1685;53.104;8.228;2023-12-20T10:48:53;4.90;;;2.13;;
3343;SDS011;1685;53.104;8.228;2023-12-20T10:51:20;4.97;;;1.53;;
3343;SDS011;1685;53.104;8.228;2023-12-20T10:53:49;6.23;;;2.40;;
3343;SDS011;1685;53.104;8.228;2023-12-20T10:56:17;11.97;;;2.43;;
3343;SDS011;1685;53.104;8.228;2023-12-20T10:58:48;14.57;;;1.83;;
3343;SDS011;1685;53.104;8.228;2023-12-20T11:01:15;6.93;;;2.10;;
3343;SDS011;1685;53.104;8.228;2023-12-20T11:03:43;9.10;;;2.07;;
3343;SDS011;1685;53.104;8.228;2023-12-20T11:06:18;3.80;;;1.57;;
3343;SDS011;1685;53.104;8.228;2023-12-20T11:08:55;6.60;;;1.63;;
3343;SDS011;1685;53.104;8.228;2023-12-20T11:11:35;13.30;;;2.40;;
3343;SDS011;1685;53.104;8.228;2023-12-20T11:14:11;8.50;;;2.07;;
3343;SDS011;1685;53.104;8.228;2023-12-20T11:16:42;8.63;;;2.10;;
3343;SDS011;1685;53.104;8.228;2023-12-20T11:19:09;7.30;;;1.87;;
3343;SDS011;1685;53.104;8.228;2023-12-20T11:21:39;5.40;;;1.67;;
3343;SDS011;1685;53.104;8.228;2023-12-20T11:24:06;10.33;;;2.03;;
3343;SDS011;1685;53.104;8.228;2023-12-20T11:26:33;14.20;;;2.33;;
3343;SDS011;1685;53.104;8.228;2023-12-20T11:31:57;5.43;;;1.97;;
3343;SDS011;1685;53.104;8.228;2023-12-20T11:34:26;14.93;;;2.67;;
3343;SDS011;1685;53.104;8.228;2023-12-20T11:36:58;11.33;;;2.63;;
3343;SDS011;1685;53.104;8.228;2023-12-20T11:39:25;6.47;;;2.10;;
3343;SDS011;1685;53.104;8.228;2023-12-20T11:41:54;11.33;;;3.07;;
3343;SDS011;1685;53.104;8.228;2023-12-20T11:44:22;6.20;;;2.20;;
3343;SDS011;1685;53.104;8.228;2023-12-20T11:46:50;10.47;;;2.50;;
3343;SDS011;1685;53.104;8.228;2023-12-20T11:49:19;7.20;;;2.13;;
3343;SDS011;1685;53.104;8.228;2023-12-20T11:51:49;8.90;;;1.70;;
3343;SDS011;1685;53.104;8.228;2023-12-20T11:54:16;26.53;;;2.20;;
3343;SDS011;1685;53.104;8.228;2023-12-20T11:56:44;6.37;;;1.77;;
3343;SDS011;1685;53.104;8.228;2023-12-20T11:59:11;10.33;;;2.10;;
3343;SDS011;1685;53.104;8.228;2023-12-20T12:01:38;10.67;;;2.40;;
3343;SDS011;1685;53.104;8.228;2023-12-20T12:04:07;9.73;;;2.80;;
3343;SDS011;1685;53.104;8.228;2023-12-20T12:06:33;5.97;;;2.60;;
3343;SDS011;1685;53.104;8.228;2023-12-20T12:09:00;11.63;;;2.37;;
3343;SDS011;1685;53.104;8.228;2023-12-20T12:11:29;8.83;;;2.70;;
3343;SDS011;1685;53.104;8.228;2023-12-20T12:13:56;24.53;;;3.10;;
3343;SDS011;1685;53.104;8.228;2023-12-20T12:16:23;9.33;;;2.77;;
3343;SDS011;1685;53.104;8.228;2023-12-20T12:18:55;12.03;;;2.63;;
3343;SDS011;1685;53.104;8.228;2023-12-20T12:21:24;11.03;;;3.43;;
3343;SDS011;1685;53.104;8.228;2023-12-20T12:23:50;24.00;;;3.10;;
3343;SDS011;1685;53.104;8.228;2023-12-20T12:26:18;14.80;;;2.33;;
3343;SDS011;1685;53.104;8.228;2023-12-20T12:28:45;10.03;;;2.43;;
3343;SDS011;1685;53.104;8.228;2023-12-20T12:31:15;20.10;;;2.17;;
3343;SDS011;1685;53.104;8.228;2023-12-20T12:33:42;14.67;;;2.17;;
3343;SDS011;1685;53.104;8.228;2023-12-20T12:36:10;16.50;;;2.50;;
3343;SDS011;1685;53.104;8.228;2023-12-20T12:38:38;10.03;;;2.70;;
3343;SDS011;1685;53.104;8.228;2023-12-20T12:41:05;7.73;;;2.30;;
3343;SDS011;1685;53.104;8.228;2023-12-20T12:43:32;5.20;;;1.97;;
3343;SDS011;1685;53.104;8.228;2023-12-20T12:46:00;11.10;;;2.27;;
3343;SDS011;1685;53.104;8.228;2023-12-20T12:48:27;15.50;;;2.70;;
3343;SDS011;1685;53.104;8.228;2023-12-20T12:50:54;11.47;;;2.70;;
3343;SDS011;1685;53.104;8.228;2023-12-20T12:53:24;13.40;;;2.57;;
3343;SDS011;1685;53.104;8.228;2023-12-20T12:55:53;11.40;;;2.43;;
3343;SDS011;1685;53.104;8.228;2023-12-20T12:58:20;6.77;;;2.27;;
3343;SDS011;1685;53.104;8.228;2023-12-20T13:00:50;11.13;;;2.17;;
3343;SDS011;1685;53.104;8.228;2023-12-20T13:03:17;10.77;;;2.30;;
3343;SDS011;1685;53.104;8.228;2023-12-20T13:05:44;11.03;;;3.30;;
3343;SDS011;1685;53.104;8.228;2023-12-20T13:08:12;8.83;;;2.23;;
3343;SDS011;1685;53.104;8.228;2023-12-20T13:10:39;15.47;;;2.80;;
3343;SDS011;1685;53.104;8.228;2023-12-20T13:13:08;10.73;;;2.70;;
3343;SDS011;1685;53.104;8.228;2023-12-20T13:15:35;7.70;;;1.60;;
3343;SDS011;1685;53.104;8.228;2023-12-20T13:18:02;22.80;;;4.50;;
3343;SDS011;1685;53.104;8.228;2023-12-20T13:20:31;9.67;;;2.30;;
3343;SDS011;1685;53.104;8.228;2023-12-20T13:22:58;6.57;;;1.93;;
3343;SDS011;1685;53.104;8.228;2023-12-20T13:25:25;15.80;;;3.40;;
3343;SDS011;1685;53.104;8.228;2023-12-20T13:27:53;10.37;;;2.80;;
3343;SDS011;1685;53.104;8.228;2023-12-20T13:30:22;18.80;;;3.20;;
3343;SDS011;1685;53.104;8.228;2023-12-20T13:32:49;6.60;;;2.30;;
3343;SDS011;1685;53.104;8.228;2023-12-20T13:35:16;3.90;;;1.97;;
3343;SDS011;1685;53.104;8.228;2023-12-20T13:37:43;14.70;;;3.20;;
3343;SDS011;1685;53.104;8.228;2023-12-20T13:40:11;13.40;;;3.40;;
3343;SDS011;1685;53.104;8.228;2023-12-20T13:42:38;13.63;;;2.30;;
3343;SDS011;1685;53.104;8.228;2023-12-20T13:45:05;12.17;;;2.50;;
3343;SDS011;1685;53.104;8.228;2023-12-20T13:47:35;10.13;;;3.40;;
3343;SDS011;1685;53.104;8.228;2023-12-20T13:50:02;15.67;;;2.80;;
3343;SDS011;1685;53.104;8.228;2023-12-20T13:52:30;14.60;;;3.00;;
3343;SDS011;1685;53.104;8.228;2023-12-20T13:54:57;19.77;;;2.57;;
3343;SDS011;1685;53.104;8.228;2023-12-20T13:57:24;16.27;;;2.83;;
3343;SDS011;1685;53.104;8.228;2023-12-20T13:59:52;10.17;;;2.73;;
3343;SDS011;1685;53.104;8.228;2023-12-20T14:02:19;9.97;;;2.80;;
3343;SDS011;1685;53.104;8.228;2023-12-20T14:04:48;14.30;;;2.47;;
3343;SDS011;1685;53.104;8.228;2023-12-20T14:07:14;20.70;;;2.50;;
3343;SDS011;1685;53.104;8.228;2023-12-20T14:09:42;10.20;;;2.43;;
3343;SDS011;1685;53.104;8.228;2023-12-20T14:12:10;13.60;;;2.80;;
3343;SDS011;1685;53.104;8.228;2023-12-20T14:14:37;6.63;;;2.70;;
3343;SDS011;1685;53.104;8.228;2023-12-20T14:17:04;11.77;;;3.13;;
3343;SDS011;1685;53.104;8.228;2023-12-20T14:19:32;7.20;;;2.67;;
3343;SDS011;1685;53.104;8.228;2023-12-20T14:22:00;14.77;;;3.40;;
3343;SDS011;1685;53.104;8.228;2023-12-20T14:24:28;16.10;;;2.47;;
3343;SDS011;1685;53.104;8.228;2023-12-20T14:26:55;10.00;;;2.50;;
3343;SDS011;1685;53.104;8.228;2023-12-20T14:29:23;11.97;;;2.87;;
3343;SDS011;1685;53.104;8.228;2023-12-20T14:31:52;16.30;;;2.80;;
3343;SDS011;1685;53.104;8.228;2023-12-20T14:34:19;14.73;;;3.87;;
3343;SDS011;1685;53.104;8.228;2023-12-20T14:36:47;14.50;;;2.37;;
3343;SDS011;1685;53.104;8.228;2023-12-20T14:39:15;7.60;;;2.03;;
3343;SDS011;1685;53.104;8.228;2023-12-20T14:41:42;19.63;;;3.20;;
3343;SDS011;1685;53.104;8.228;2023-12-20T14:44:10;9.13;;;2.37;;
3343;SDS011;1685;53.104;8.228;2023-12-20T14:46:37;13.17;;;2.50;;
3343;SDS011;1685;53.104;8.228;2023-12-20T14:49:04;13.87;;;3.10;;
3343;SDS011;1685;53.104;8.228;2023-12-20T14:51:32;11.20;;;2.13;;
3343;SDS011;1685;53.104;8.228;2023-12-20T14:54:00;8.63;;;2.60;;
3343;SDS011;1685;53.104;8.228;2023-12-20T14:56:29;9.33;;;3.00;;
3343;SDS011;1685;53.104;8.228;2023-12-20T14:58:56;11.13;;;3.00;;
3343;SDS011;1685;53.104;8.228;2023-12-20T15:01:23;8.60;;;3.20;;
3343;SDS011;1685;53.104;8.228;2023-12-20T15:03:51;13.93;;;2.43;;
3343;SDS011;1685;53.104;8.228;2023-12-20T15:06:18;12.03;;;2.93;;
3343;SDS011;1685;53.104;8.228;2023-12-20T15:08:45;22.30;;;3.77;;
3343;SDS011;1685;53.104;8.228;2023-12-20T15:11:12;6.40;;;2.33;;